Stewart, MN (55385)

4:41 AM CST on January 25, 2015 (GMT -0600)
Hutchinson Municipal-Butler | Change Station
CLOSE
Current Station
Airport
Location: Hutchinson,
Elevation: 1060 ft
Nearby Weather Stations

Elev 1060 ft 44.86 °N, 94.39 °W | Updated 9 minutes ago

Overcast
Overcast
30 °F
Feels Like 20 °F
N
13
Wind Variable Wind from NNE
Gusts 18 mph

Today
High -- | Low -- °F
--% Chance of Precip.
Yesterday
High -- | Low -- °F
Precip. -- in
7:44 AM 5:16 PM
Waxing Crescent, 31% visible
Pressure 29.84 in
Visibility 10.0 miles
Clouds Mostly Cloudy 2000 ft
Overcast 4000 ft
Windchill 20 °F
Dew Point 27 °F
Humidity 88%
Rainfall 0.00 in
Snow Depth Not available.
UV 0 out of 12
Pollen .10 out of 12
Air Quality Not available.
Flu Activity Not available.
METAR KHCD 251032Z AUTO 02011G16KT 10SM BKN020 OVC040 M01/M03 A2984 RMK AO2 T10121030

More Conditions Fewer Conditions

Pressure 29.84 in
Visibility 10.0 miles
Clouds Mostly Cloudy 2000 ft
Overcast 4000 ft
Windchill 20 °F
Dew Point 27 °F
Humidity 88%
Rainfall 0.00 in
Snow Depth Not available.
UV 0 out of 12
Pollen .10 out of 12
Air Quality Not available.
Flu Activity Not available.
METAR KHCD 251032Z AUTO 02011G16KT 10SM BKN020 OVC040 M01/M03 A2984 RMK AO2 T10121030

More Conditions Fewer Conditions

10-Day Weather Forecast

Almanac

Astronomy

Jan. 25, 2015 Rise Set
Actual Time
Civil Twilight
Nautical Twilight
Astronomical Twilight
Moon
Length of Visible Light
Length of Day
Tomorrow will be .
, % of the Moon is Illuminated

Today's Extremes

State Highs State Lows

Community

WunderPhotos

Upload Photos

1,789,867 photos uploaded!

WunderBlogs® & News

Nearby

Air Quality

  Air Quality AQ Index Pollutant
Not available.

Snow Depth

Station Depth Elevation

Earthquake Activity

City Distance Mag. Time & Date
Minimum magnitude displayed is 2.5.

Coastal Water Temperatures

Place Temperature

Nearby Weather Stations